Huvudsida
METAR-TAF:

METAR-TAF

Flygplatser :

Notoddens flygplats. Tuven

Notoddens, Norge

latitud: 59-34N, longitud: 009-13E, höjd: 19 m

Aktuellt väderrapport

Denna rapport gjordes för 19 timmar och 59 minuter sedan, klockan 13:50 UTC
Vind 6 kt från sydost, varierande mellan ost och syd/sydost
Temperatur 28°C
Fuktighet 27%
Tryck 1026 hPa
Sikt 10 km eller mer
Inga moln under 1 500 m eller inga cumulonimbus

METAR: ENNO 261350Z 13006KT 100V160 CAVOK 28/07 Q1026

Tid: 11:49 (09:49 UTC)


TAF: saknas

Aktuella väderrapporter och prognoser från 4000 flygplatser (METAR- och TAF-rapporter).

De tillgängliga stationerna syns som gula och röda prickar på kartan.

För musen över prickarna för att se namnen på stationerna.

Klicka sedan för att få väderrapporter och prognoser.

För att ändra kartan: Klicka på de gröna knapparna med ett svart kors på för att zooma in; den gröna knappen med ett streck på för att zooma ut; eller på de gröna pilarna för angränsande kartor.


METAR-TAF: